Time;durP1;ratioP1;P1;durP2;ratioP2;P2;SDS_P1;SDS_P2;PMS_P1;PMS_P2;Temp;Humidity;BMP_temperature;BMP_pressure;BME280_temperature;BME280_humidity;BME280_pressure;Samples;Min_cycle;Max_cycle;Signal;HPM_P1;HPM_P2
2023/07/12 00:00:01;;;;;;;13.82;4.10;;;;;;;;;;6314781;28;20380;-79
2023/07/12 00:03:07;;;;;;;16.75;4.93;;;;;;;;;;6327384;28;20398;-80
2023/07/12 00:06:12;;;;;;;22.42;4.55;;;;;;;;;;6332624;28;20048;-80
2023/07/12 00:09:14;;;;;;;19.48;4.60;;;;;;;;;;6326538;28;20051;-79
2023/07/12 00:12:17;;;;;;;23.60;4.82;;;;;;;;;;6328197;28;20073;-79
2023/07/12 00:15:27;;;;;;;19.73;4.93;;;;;;;;;;6325181;28;20040;-79
2023/07/12 00:18:44;;;;;;;22.05;4.25;;;;;;;;;;6325149;28;20209;-79
2023/07/12 00:21:46;;;;;;;21.65;3.85;;;;;;;;;;6324549;28;20229;-79
2023/07/12 00:24:48;;;;;;;23.10;4.30;;;;;;;;;;6328750;28;20063;-79
2023/07/12 00:27:50;;;;;;;23.85;4.70;;;;;;;;;;6313200;28;20048;-79
2023/07/12 00:30:52;;;;;;;13.47;3.83;;;;;;;;;;6325586;28;20059;-79
2023/07/12 00:33:55;;;;;;;25.40;4.30;;;;;;;;;;6327810;28;20337;-79
2023/07/12 00:36:56;;;;;;;;;;;;;;;;;;6329951;28;20067;-79
2023/07/12 00:39:57;;;;;;;18.77;4.70;;;;;;;;;;6326995;28;19923;-78
2023/07/12 00:43:01;;;;;;;18.48;3.83;;;;;;;;;;6327268;28;20165;-79
2023/07/12 00:46:04;;;;;;;16.98;4.03;;;;;;;;;;6326652;28;20051;-80
2023/07/12 00:49:09;;;;;;;18.85;3.92;;;;;;;;;;6325608;28;20048;-79
2023/07/12 00:52:12;;;;;;;23.00;4.97;;;;;;;;;;6327457;27;20048;-79
2023/07/12 00:55:31;;;;;;;16.00;4.28;;;;;;;;;;6326900;28;20056;-79
2023/07/12 00:58:38;;;;;;;16.77;4.95;;;;;;;;;;6324056;28;20055;-80
2023/07/12 01:01:40;;;;;;;21.58;4.15;;;;;;;;;;6326252;28;20143;-81
2023/07/12 01:04:48;;;;;;;21.52;3.88;;;;;;;;;;6326627;28;20067;-79
2023/07/12 01:07:50;;;;;;;20.50;4.18;;;;;;;;;;6325706;28;20071;-80
2023/07/12 01:10:52;;;;;;;17.33;4.88;;;;;;;;;;6321865;28;20052;-81
2023/07/12 01:13:54;;;;;;;23.13;4.43;;;;;;;;;;6326201;28;20243;-81
2023/07/12 01:16:58;;;;;;;18.40;4.05;;;;;;;;;;6329532;28;20072;-79
2023/07/12 01:20:01;;;;;;;18.55;4.20;;;;;;;;;;6325203;28;20058;-80
2023/07/12 01:23:03;;;;;;;;;;;;;;;;;;6328694;28;20051;-79
2023/07/12 01:26:17;;;;;;;13.75;4.07;;;;;;;;;;6324174;28;19924;-80
2023/07/12 01:29:18;;;;;;;18.63;4.05;;;;;;;;;;6324881;28;20052;-79
2023/07/12 01:32:20;;;;;;;23.40;4.70;;;;;;;;;;6319766;28;20048;-80
2023/07/12 01:35:22;;;;;;;13.15;3.13;;;;;;;;;;6324392;28;20350;-80
2023/07/12 01:38:23;;;;;;;19.85;4.13;;;;;;;;;;6326626;28;20044;-79
2023/07/12 01:41:26;;;;;;;29.40;4.68;;;;;;;;;;6323402;28;20060;-80
2023/07/12 01:44:28;;;;;;;;;;;;;;;;;;6327983;28;20052;-78
2023/07/12 01:47:29;;;;;;;25.95;4.68;;;;;;;;;;6325787;28;19987;-79
2023/07/12 01:50:31;;;;;;;17.85;4.10;;;;;;;;;;6323368;28;20058;-79
2023/07/12 01:53:34;;;;;;;25.38;4.88;;;;;;;;;;6326119;28;20252;-78
2023/07/12 01:56:37;;;;;;;19.45;3.78;;;;;;;;;;6324030;28;20052;-78
2023/07/12 01:59:39;;;;;;;;;;;;;;;;;;6323993;28;20067;-79
2023/07/12 02:02:40;;;;;;;17.63;3.92;;;;;;;;;;6324650;28;19916;-78
2023/07/12 02:05:42;;;;;;;14.18;3.50;;;;;;;;;;6323584;28;20059;-79
2023/07/12 02:08:43;;;;;;;18.98;3.58;;;;;;;;;;6324321;28;20568;-79
2023/07/12 02:11:46;;;;;;;19.40;4.05;;;;;;;;;;6324657;28;20062;-78
2023/07/12 02:14:48;;;;;;;;;;;;;;;;;;6326581;28;20148;-78
2023/07/12 02:17:49;;;;;;;14.30;3.83;;;;;;;;;;6326408;28;19924;-79
2023/07/12 02:20:51;;;;;;;19.60;4.65;;;;;;;;;;6329266;28;20074;-78
2023/07/12 02:23:53;;;;;;;15.70;4.50;;;;;;;;;;6328240;28;20056;-79
2023/07/12 02:26:55;;;;;;;13.75;4.72;;;;;;;;;;6330093;28;20226;-78
2023/07/12 02:29:57;;;;;;;13.93;4.18;;;;;;;;;;6325354;28;20055;-78
2023/07/12 02:32:59;;;;;;;19.27;4.60;;;;;;;;;;6331385;28;20248;-78
2023/07/12 02:36:02;;;;;;;12.55;4.15;;;;;;;;;;6330917;28;20052;-78
2023/07/12 02:39:04;;;;;;;10.25;4.63;;;;;;;;;;6327562;28;20060;-79
2023/07/12 02:42:08;;;;;;;10.75;4.38;;;;;;;;;;6328075;28;20328;-78
2023/07/12 02:45:09;;;;;;;9.85;4.45;;;;;;;;;;6330264;28;20056;-79
2023/07/12 02:48:11;;;;;;;14.85;4.60;;;;;;;;;;6323556;28;20055;-79
2023/07/12 02:51:12;;;;;;;13.32;4.78;;;;;;;;;;6325631;28;20097;-80
2023/07/12 02:54:14;;;;;;;9.77;4.43;;;;;;;;;;6325664;28;20044;-78
2023/07/12 02:57:19;;;;;;;10.40;4.05;;;;;;;;;;6325177;28;20123;-79
2023/07/12 03:00:21;;;;;;;10.73;4.10;;;;;;;;;;6321614;28;21411;-78
2023/07/12 03:03:25;;;;;;;8.38;4.72;;;;;;;;;;6322107;28;20601;-78
2023/07/12 03:06:26;;;;;;;10.40;4.70;;;;;;;;;;6323824;28;20097;-78
2023/07/12 03:09:28;;;;;;;12.60;4.60;;;;;;;;;;6322172;28;20056;-79
2023/07/12 03:12:31;;;;;;;8.13;4.00;;;;;;;;;;6323115;28;20343;-79
2023/07/12 03:15:33;;;;;;;14.15;4.88;;;;;;;;;;6321944;28;20067;-79
2023/07/12 03:18:34;;;;;;;13.13;4.83;;;;;;;;;;6322961;28;20079;-78
2023/07/12 03:21:36;;;;;;;10.77;4.40;;;;;;;;;;6322644;28;20052;-79
2023/07/12 03:24:38;;;;;;;11.23;3.90;;;;;;;;;;6323308;28;20048;-79
2023/07/12 03:27:41;;;;;;;14.50;5.35;;;;;;;;;;6322355;28;20060;-79
2023/07/12 03:30:42;;;;;;;8.07;3.70;;;;;;;;;;6321511;28;20063;-78
2023/07/12 03:33:44;;;;;;;9.52;3.72;;;;;;;;;;6324334;28;20052;-78
2023/07/12 03:36:48;;;;;;;6.30;3.45;;;;;;;;;;6313009;28;20048;-79
2023/07/12 03:39:50;;;;;;;8.13;3.67;;;;;;;;;;6317214;28;20356;-79
2023/07/12 03:42:53;;;;;;;6.57;3.20;;;;;;;;;;6326023;28;20048;-78
2023/07/12 03:45:55;;;;;;;8.13;3.45;;;;;;;;;;6321721;28;20173;-78
2023/07/12 03:48:56;;;;;;;7.03;2.92;;;;;;;;;;6323054;28;20056;-78
2023/07/12 03:51:58;;;;;;;7.28;2.90;;;;;;;;;;6322523;28;20044;-79
2023/07/12 03:54:59;;;;;;;6.75;3.13;;;;;;;;;;6307604;28;20060;-78
2023/07/12 03:58:02;;;;;;;5.35;2.53;;;;;;;;;;6324395;28;20356;-78
2023/07/12 04:01:04;;;;;;;;;;;;;;;;;;6303711;28;20079;-78
2023/07/12 04:04:05;;;;;;;4.28;2.88;;;;;;;;;;6303170;28;20157;-78
2023/07/12 04:07:08;;;;;;;8.50;2.70;;;;;;;;;;6301849;28;20048;-78
2023/07/12 04:10:09;;;;;;;;;;;;;;;;;;6301228;28;20064;-79
2023/07/12 04:13:12;;;;;;;6.05;2.75;;;;;;;;;;6304677;28;19987;-78
2023/07/12 04:16:15;;;;;;;11.68;3.00;;;;;;;;;;6303168;28;20044;-79
2023/07/12 04:19:17;;;;;;;5.38;2.47;;;;;;;;;;6302744;28;20076;-78
2023/07/12 04:22:18;;;;;;;8.27;2.80;;;;;;;;;;6304016;28;20253;-78
2023/07/12 04:25:21;;;;;;;9.00;3.13;;;;;;;;;;6301517;28;20048;-78
2023/07/12 04:28:24;;;;;;;10.40;3.35;;;;;;;;;;6302066;28;20048;-78
2023/07/12 04:31:25;;;;;;;6.75;3.10;;;;;;;;;;6301666;28;20376;-79
2023/07/12 04:34:27;;;;;;;5.25;2.72;;;;;;;;;;6302771;28;20348;-79
2023/07/12 04:37:29;;;;;;;5.82;2.70;;;;;;;;;;6300065;28;20356;-78
2023/07/12 04:40:30;;;;;;;6.72;3.05;;;;;;;;;;6301393;28;20044;-78
2023/07/12 04:43:33;;;;;;;5.47;3.15;;;;;;;;;;6302597;28;20082;-78
2023/07/12 04:46:35;;;;;;;7.43;2.90;;;;;;;;;;6298721;28;20362;-77
2023/07/12 04:49:36;;;;;;;11.25;2.72;;;;;;;;;;6301204;28;20064;-79
2023/07/12 04:52:38;;;;;;;6.30;2.65;;;;;;;;;;6301283;28;20391;-78
2023/07/12 04:55:40;;;;;;;6.85;3.03;;;;;;;;;;6300625;28;20356;-79
2023/07/12 04:58:43;;;;;;;5.25;2.65;;;;;;;;;;6307121;28;20059;-78
2023/07/12 05:01:45;;;;;;;7.30;2.85;;;;;;;;;;6327970;28;20051;-82
2023/07/12 05:04:47;;;;;;;5.50;2.60;;;;;;;;;;6325301;28;20058;-81
2023/07/12 05:07:48;;;;;;;8.73;3.05;;;;;;;;;;6325202;28;20044;-79
2023/07/12 05:10:50;;;;;;;8.02;2.42;;;;;;;;;;6326075;28;20063;-79
2023/07/12 05:13:53;;;;;;;8.93;3.08;;;;;;;;;;6327770;28;20047;-79
2023/07/12 05:16:54;;;;;;;5.68;3.22;;;;;;;;;;6326125;28;20188;-79
2023/07/12 05:19:56;;;;;;;6.57;2.65;;;;;;;;;;6325409;28;20336;-80
2023/07/12 05:22:57;;;;;;;9.35;3.15;;;;;;;;;;6327708;28;20047;-80
2023/07/12 05:25:59;;;;;;;6.45;2.40;;;;;;;;;;6324517;28;20056;-82
2023/07/12 05:29:03;;;;;;;9.10;3.00;;;;;;;;;;6327618;28;20099;-81
2023/07/12 05:32:05;;;;;;;5.35;2.53;;;;;;;;;;6326331;28;20043;-80
2023/07/12 05:35:06;;;;;;;10.95;3.17;;;;;;;;;;6323962;28;20052;-78
2023/07/12 05:38:08;;;;;;;12.13;3.35;;;;;;;;;;6325643;28;20048;-78
2023/07/12 05:41:09;;;;;;;9.90;2.88;;;;;;;;;;6326790;28;20059;-78
2023/07/12 05:44:12;;;;;;;7.90;3.25;;;;;;;;;;6325558;28;20321;-78
2023/07/12 05:47:14;;;;;;;7.57;2.88;;;;;;;;;;6325434;28;20162;-78
2023/07/12 05:50:17;;;;;;;6.20;3.45;;;;;;;;;;6326223;28;20059;-78
2023/07/12 05:53:19;;;;;;;7.70;3.10;;;;;;;;;;6324389;28;20055;-78
2023/07/12 05:56:21;;;;;;;7.63;3.30;;;;;;;;;;6325893;28;20047;-78
2023/07/12 05:59:24;;;;;;;7.82;2.80;;;;;;;;;;6325766;28;20205;-78
2023/07/12 06:02:25;;;;;;;5.78;2.88;;;;;;;;;;6325362;28;20048;-78
2023/07/12 06:05:27;;;;;;;11.00;3.15;;;;;;;;;;6323140;28;20066;-78
2023/07/12 06:08:29;;;;;;;9.25;2.67;;;;;;;;;;6323684;28;20324;-79
2023/07/12 06:11:31;;;;;;;13.35;3.25;;;;;;;;;;6321827;28;20059;-80
2023/07/12 06:14:34;;;;;;;11.43;3.30;;;;;;;;;;6325503;28;20244;-79
2023/07/12 06:17:35;;;;;;;7.50;2.30;;;;;;;;;;6321271;28;20051;-79
2023/07/12 06:20:37;;;;;;;7.70;2.58;;;;;;;;;;6324750;28;20051;-79
2023/07/12 06:23:38;;;;;;;8.32;2.53;;;;;;;;;;6321162;28;20052;-80
2023/07/12 06:26:39;;;;;;;5.60;1.60;;;;;;;;;;6326615;28;20067;-79
2023/07/12 06:29:43;;;;;;;6.50;1.92;;;;;;;;;;6322458;28;20055;-80
2023/07/12 06:32:44;;;;;;;10.65;1.88;;;;;;;;;;6316776;28;20067;-80
2023/07/12 06:35:46;;;;;;;5.78;2.05;;;;;;;;;;6323822;28;20062;-80
2023/07/12 06:38:48;;;;;;;4.78;1.48;;;;;;;;;;6325647;28;20284;-78
2023/07/12 06:41:50;;;;;;;13.15;1.80;;;;;;;;;;6323642;28;20496;-80
2023/07/12 06:44:53;;;;;;;7.45;1.58;;;;;;;;;;6325918;28;20055;-78
2023/07/12 06:47:55;;;;;;;9.68;1.42;;;;;;;;;;6322231;28;20074;-80
2023/07/12 06:50:56;;;;;;;5.13;1.92;;;;;;;;;;6323859;28;20054;-78
2023/07/12 06:53:58;;;;;;;5.00;1.65;;;;;;;;;;6323916;28;20051;-79
2023/07/12 06:56:59;;;;;;;6.25;1.58;;;;;;;;;;6322601;28;20056;-79
2023/07/12 07:00:05;;;;;;;7.32;1.95;;;;;;;;;;6325127;28;20271;-79
2023/07/12 07:03:09;;;;;;;5.60;1.38;;;;;;;;;;6322450;28;20060;-79
2023/07/12 07:06:10;;;;;;;7.70;1.70;;;;;;;;;;6323686;28;20068;-79
2023/07/12 07:09:12;;;;;;;6.63;1.95;;;;;;;;;;6322608;28;20052;-79
2023/07/12 07:12:13;;;;;;;5.68;1.65;;;;;;;;;;6322270;28;20063;-79
2023/07/12 07:15:16;;;;;;;6.50;2.05;;;;;;;;;;6322895;28;20062;-79
2023/07/12 07:18:18;;;;;;;3.35;1.30;;;;;;;;;;6319358;28;20201;-81
2023/07/12 07:21:20;;;;;;;6.75;1.58;;;;;;;;;;6324310;28;20248;-78
2023/07/12 07:24:22;;;;;;;3.65;1.52;;;;;;;;;;6324068;28;20059;-79
2023/07/12 07:27:23;;;;;;;7.35;1.60;;;;;;;;;;6324457;28;20139;-79
2023/07/12 07:30:26;;;;;;;5.93;1.70;;;;;;;;;;6325167;28;20089;-78
2023/07/12 07:33:28;;;;;;;7.18;1.60;;;;;;;;;;6329057;28;20320;-79
2023/07/12 07:36:29;;;;;;;4.85;1.75;;;;;;;;;;6324993;28;20083;-79
2023/07/12 07:39:31;;;;;;;8.63;1.80;;;;;;;;;;6330617;28;20398;-79
2023/07/12 07:42:33;;;;;;;6.03;1.35;;;;;;;;;;6325505;28;20089;-78
2023/07/12 07:45:36;;;;;;;5.93;1.50;;;;;;;;;;6327613;28;20358;-81
2023/07/12 07:48:37;;;;;;;78.55;51.67;;;;;;;;;;6328497;28;20059;-78
2023/07/12 07:51:39;;;;;;;6.25;2.70;;;;;;;;;;6327203;28;20063;-79
2023/07/12 07:54:41;;;;;;;8.48;1.83;;;;;;;;;;6328649;28;20060;-79
2023/07/12 07:57:43;;;;;;;6.68;1.20;;;;;;;;;;6328180;28;20059;-80
2023/07/12 08:00:46;;;;;;;6.18;1.10;;;;;;;;;;6328077;28;20059;-80
2023/07/12 08:03:48;;;;;;;5.18;1.45;;;;;;;;;;6327131;28;20240;-77
2023/07/12 08:06:50;;;;;;;14.48;9.70;;;;;;;;;;6327592;28;20060;-79
2023/07/12 08:09:51;;;;;;;20.23;14.35;;;;;;;;;;6327830;28;20055;-79
2023/07/12 08:12:55;;;;;;;8.45;1.02;;;;;;;;;;6325568;28;20123;-79
2023/07/12 08:15:56;;;;;;;;;;;;;;;;;;6328448;28;20059;-79
2023/07/12 08:18:59;;;;;;;5.78;1.25;;;;;;;;;;6331020;28;19954;-79
2023/07/12 08:22:01;;;;;;;6.22;2.15;;;;;;;;;;6326873;28;20063;-79
2023/07/12 08:25:02;;;;;;;4.38;1.20;;;;;;;;;;6327876;28;20055;-79
2023/07/12 08:28:04;;;;;;;5.50;1.42;;;;;;;;;;6327211;28;20058;-80
2023/07/12 08:31:06;;;;;;;5.55;1.40;;;;;;;;;;6326781;28;20111;-80
2023/07/12 08:34:09;;;;;;;2.97;1.15;;;;;;;;;;6327467;28;20115;-80
2023/07/12 08:37:10;;;;;;;3.22;1.20;;;;;;;;;;6328640;28;20340;-80
2023/07/12 08:40:13;;;;;;;5.05;1.27;;;;;;;;;;6328934;28;20040;-80
2023/07/12 08:43:15;;;;;;;;;;;;;;;;;;6327955;28;20056;-80
2023/07/12 08:46:18;;;;;;;4.45;1.30;;;;;;;;;;6328287;28;20200;-79
2023/07/12 08:49:21;;;;;;;2.83;1.00;;;;;;;;;;6327883;28;20453;-80
2023/07/12 08:52:26;;;;;;;7.43;1.10;;;;;;;;;;6326743;28;20075;-79
2023/07/12 08:55:28;;;;;;;4.40;1.05;;;;;;;;;;6325832;28;20060;-79
2023/07/12 08:58:33;;;;;;;4.75;1.35;;;;;;;;;;6321265;28;20057;-80
2023/07/12 09:01:53;;;;;;;5.72;1.27;;;;;;;;;;6302041;28;20084;-80
2023/07/12 09:04:57;;;;;;;3.45;1.45;;;;;;;;;;6301819;28;20046;-80
2023/07/12 09:08:01;;;;;;;7.25;1.30;;;;;;;;;;6302478;28;20060;-80
2023/07/12 09:11:03;;;;;;;7.18;1.60;;;;;;;;;;6304569;28;20751;-80
2023/07/12 09:14:04;;;;;;;5.57;1.58;;;;;;;;;;6302482;28;20053;-80
2023/07/12 09:17:07;;;;;;;4.20;1.33;;;;;;;;;;6302356;28;20090;-79
2023/07/12 09:20:25;;;;;;;6.68;1.67;;;;;;;;;;6302047;28;20059;-80
2023/07/12 09:23:32;;;;;;;6.63;1.77;;;;;;;;;;6300937;28;20086;-80
2023/07/12 09:26:33;;;;;;;5.90;1.77;;;;;;;;;;6301760;28;20097;-81
2023/07/12 09:29:35;;;;;;;3.88;1.40;;;;;;;;;;6302196;28;20064;-80
2023/07/12 09:32:37;;;;;;;3.42;1.90;;;;;;;;;;6302612;28;20048;-81
2023/07/12 09:35:41;;;;;;;3.67;1.55;;;;;;;;;;6302249;28;20328;-80
2023/07/12 09:38:43;;;;;;;6.65;1.70;;;;;;;;;;6301773;28;20056;-80
2023/07/12 09:41:50;;;;;;;4.60;2.03;;;;;;;;;;6302648;28;20052;-80
2023/07/12 09:44:54;;;;;;;2.88;1.83;;;;;;;;;;6301755;28;20482;-81
2023/07/12 09:48:04;;;;;;;4.25;2.38;;;;;;;;;;6301207;28;20119;-80
2023/07/12 09:51:13;;;;;;;6.35;2.65;;;;;;;;;;6300982;28;20053;-80
2023/07/12 09:54:23;;;;;;;5.68;2.38;;;;;;;;;;6300962;28;20048;-80
2023/07/12 09:57:32;;;;;;;6.05;2.58;;;;;;;;;;6302048;28;20060;-80
2023/07/12 10:00:39;;;;;;;4.72;2.40;;;;;;;;;;6324555;28;20040;-80
2023/07/12 10:03:42;;;;;;;5.78;2.58;;;;;;;;;;6324745;28;20375;-80
2023/07/12 10:06:48;;;;;;;5.65;2.47;;;;;;;;;;6325143;28;20063;-81
2023/07/12 10:09:52;;;;;;;7.47;3.22;;;;;;;;;;6325145;28;20070;-80
2023/07/12 10:12:59;;;;;;;6.43;3.25;;;;;;;;;;6325577;28;20060;-80
2023/07/12 10:16:02;;;;;;;7.15;2.53;;;;;;;;;;6326006;28;20107;-80
2023/07/12 10:19:05;;;;;;;8.85;2.60;;;;;;;;;;6326124;28;20244;-80
2023/07/12 10:22:14;;;;;;;8.35;2.90;;;;;;;;;;6324563;28;20059;-81
2023/07/12 10:25:20;;;;;;;8.73;3.15;;;;;;;;;;6325030;28;20108;-80
2023/07/12 10:28:26;;;;;;;7.88;3.10;;;;;;;;;;6324493;28;20583;-80
2023/07/12 10:31:35;;;;;;;7.25;2.92;;;;;;;;;;6324082;28;20169;-81
2023/07/12 10:34:39;;;;;;;7.28;3.50;;;;;;;;;;6326321;28;20119;-80
2023/07/12 10:37:45;;;;;;;9.68;3.17;;;;;;;;;;6324951;28;20047;-81
2023/07/12 10:40:50;;;;;;;8.20;3.03;;;;;;;;;;6326363;28;20236;-81
2023/07/12 10:44:00;;;;;;;10.57;3.33;;;;;;;;;;6323977;28;20117;-80
2023/07/12 10:47:07;;;;;;;9.80;3.38;;;;;;;;;;6324657;28;20275;-80
2023/07/12 10:50:20;;;;;;;7.88;3.58;;;;;;;;;;6324455;28;20040;-80
2023/07/12 10:53:25;;;;;;;8.45;3.08;;;;;;;;;;6323809;28;20272;-80
2023/07/12 10:56:27;;;;;;;8.70;3.20;;;;;;;;;;6323999;28;20044;-80
2023/07/12 10:59:47;;;;;;;7.93;3.35;;;;;;;;;;6323871;28;20076;-81
2023/07/12 11:02:50;;;;;;;7.53;3.95;;;;;;;;;;6323552;28;20225;-81
2023/07/12 11:06:06;;;;;;;10.63;3.70;;;;;;;;;;6331780;28;20044;-80
2023/07/12 11:09:10;;;;;;;7.50;3.40;;;;;;;;;;6333182;28;20051;-80
2023/07/12 11:12:13;;;;;;;10.13;3.90;;;;;;;;;;6332302;28;20064;-80
2023/07/12 11:15:14;;;;;;;;;;;;;;;;;;6334165;28;20266;-80
2023/07/12 11:18:22;;;;;;;9.38;4.03;;;;;;;;;;6327849;28;20398;-80
2023/07/12 11:21:28;;;;;;;24.48;16.23;;;;;;;;;;6334767;28;20059;-81
2023/07/12 11:24:37;;;;;;;30.17;18.38;;;;;;;;;;6334053;28;20063;-80
2023/07/12 11:27:41;;;;;;;30.38;16.83;;;;;;;;;;6333237;28;20048;-80
2023/07/12 11:30:44;;;;;;;36.45;22.55;;;;;;;;;;6335212;28;20147;-81
2023/07/12 11:33:49;;;;;;;32.20;21.38;;;;;;;;;;6334205;28;20055;-80
2023/07/12 11:36:53;;;;;;;39.58;22.95;;;;;;;;;;6333640;28;20113;-81
2023/07/12 11:39:56;;;;;;;14.55;7.88;;;;;;;;;;6333792;28;20315;-81
2023/07/12 11:43:16;;;;;;;15.13;8.90;;;;;;;;;;6332677;28;20055;-79
2023/07/12 11:46:18;;;;;;;8.05;3.70;;;;;;;;;;6333641;28;20047;-80
2023/07/12 11:49:21;;;;;;;8.32;4.07;;;;;;;;;;6332541;28;20328;-79
2023/07/12 11:52:22;;;;;;;10.80;4.10;;;;;;;;;;6331541;28;20267;-80
2023/07/12 11:55:29;;;;;;;9.10;4.10;;;;;;;;;;6331752;28;20063;-81
2023/07/12 11:58:30;;;;;;;23.67;16.15;;;;;;;;;;6326998;28;20470;-81
2023/07/12 12:01:32;;;;;;;13.95;6.65;;;;;;;;;;6306789;28;20299;-79
2023/07/12 12:04:33;;;;;;;10.95;3.63;;;;;;;;;;6307948;28;20056;-78
2023/07/12 12:07:37;;;;;;;8.32;3.70;;;;;;;;;;6306824;28;20045;-82
2023/07/12 12:10:41;;;;;;;9.73;4.47;;;;;;;;;;6307444;28;20052;-80
2023/07/12 12:13:44;;;;;;;8.25;3.80;;;;;;;;;;6306138;28;20056;-79
2023/07/12 12:16:49;;;;;;;15.77;4.20;;;;;;;;;;6303722;28;20044;-80
2023/07/12 12:19:50;;;;;;;10.70;4.30;;;;;;;;;;6303113;28;20064;-79
2023/07/12 12:22:56;;;;;;;8.73;4.93;;;;;;;;;;6304578;28;20060;-79
2023/07/12 12:26:02;;;;;;;8.68;4.10;;;;;;;;;;6303128;28;20048;-79
2023/07/12 12:29:06;;;;;;;10.70;4.10;;;;;;;;;;6302642;28;20102;-79
2023/07/12 12:32:12;;;;;;;12.07;4.38;;;;;;;;;;6302159;28;20049;-79
2023/07/12 12:35:14;;;;;;;9.35;4.45;;;;;;;;;;6305429;28;20072;-80
2023/07/12 12:38:21;;;;;;;11.60;4.50;;;;;;;;;;6303474;28;20052;-79
2023/07/12 12:41:24;;;;;;;12.98;4.63;;;;;;;;;;6303804;28;20466;-79
2023/07/12 12:44:28;;;;;;;10.50;4.50;;;;;;;;;;6301400;28;20079;-80
2023/07/12 12:47:31;;;;;;;12.57;4.50;;;;;;;;;;6302508;28;20075;-79
2023/07/12 12:50:32;;;;;;;9.57;3.65;;;;;;;;;;6302414;28;20099;-78
2023/07/12 12:53:34;;;;;;;12.37;4.97;;;;;;;;;;6301589;28;20054;-80
2023/07/12 12:56:37;;;;;;;11.93;4.80;;;;;;;;;;6304665;28;20056;-79
2023/07/12 12:59:38;;;;;;;10.07;3.78;;;;;;;;;;6316161;28;20056;-80
2023/07/12 13:02:40;;;;;;;12.00;4.30;;;;;;;;;;6327924;28;20078;-79
2023/07/12 13:05:42;;;;;;;;;;;;;;;;;;6308355;28;20055;-79
2023/07/12 13:08:43;;;;;;;12.00;3.97;;;;;;;;;;6327408;28;19916;-79
2023/07/12 13:11:46;;;;;;;8.55;4.10;;;;;;;;;;6325266;28;20125;-79
2023/07/12 13:14:48;;;;;;;10.68;4.10;;;;;;;;;;6310957;28;20130;-79
2023/07/12 13:17:51;;;;;;;9.05;4.32;;;;;;;;;;6326343;28;20063;-79
2023/07/12 13:20:54;;;;;;;9.07;3.95;;;;;;;;;;6327498;28;20129;-80
2023/07/12 13:23:55;;;;;;;13.02;4.35;;;;;;;;;;6326746;28;20156;-79
2023/07/12 13:26:58;;;;;;;13.45;4.70;;;;;;;;;;6326085;28;20044;-79
2023/07/12 13:30:01;;;;;;;9.70;4.03;;;;;;;;;;6325202;28;20315;-80
2023/07/12 13:33:02;;;;;;;13.25;4.22;;;;;;;;;;6328548;28;20115;-79
2023/07/12 13:36:04;;;;;;;12.63;4.75;;;;;;;;;;6325813;28;20111;-80
2023/07/12 13:39:13;;;;;;;12.50;4.00;;;;;;;;;;6327242;28;20056;-80
2023/07/12 13:42:16;;;;;;;9.77;4.43;;;;;;;;;;6325133;28;20050;-79
2023/07/12 13:45:18;;;;;;;16.52;5.22;;;;;;;;;;6326136;28;20058;-79
2023/07/12 13:48:20;;;;;;;13.02;4.60;;;;;;;;;;6326164;28;20093;-80
2023/07/12 13:51:23;;;;;;;13.98;4.10;;;;;;;;;;6326781;28;20078;-79
2023/07/12 13:54:24;;;;;;;11.10;4.35;;;;;;;;;;6326266;28;20055;-79
2023/07/12 13:57:28;;;;;;;9.70;3.60;;;;;;;;;;6326279;28;20040;-79
2023/07/12 14:00:29;;;;;;;11.02;4.85;;;;;;;;;;6325155;28;20123;-80
2023/07/12 14:03:31;;;;;;;13.02;4.63;;;;;;;;;;6324673;28;20063;-79
2023/07/12 14:06:32;;;;;;;45.85;33.55;;;;;;;;;;6323618;28;20052;-80
2023/07/12 14:09:33;;;;;;;24.48;13.63;;;;;;;;;;6323729;28;20071;-79
2023/07/12 14:12:36;;;;;;;16.90;9.05;;;;;;;;;;6320825;28;20048;-79
2023/07/12 14:15:38;;;;;;;13.65;4.50;;;;;;;;;;6323098;28;20048;-79
2023/07/12 14:18:39;;;;;;;10.17;4.43;;;;;;;;;;6323726;28;20060;-79
2023/07/12 14:21:41;;;;;;;13.17;4.80;;;;;;;;;;6327309;28;20564;-79
2023/07/12 14:24:43;;;;;;;12.00;5.20;;;;;;;;;;6330169;28;20472;-79
2023/07/12 14:27:45;;;;;;;12.10;4.37;;;;;;;;;;6330697;28;20070;-79
2023/07/12 14:30:47;;;;;;;14.35;4.45;;;;;;;;;;6326929;28;20047;-79
2023/07/12 14:33:49;;;;;;;11.23;3.83;;;;;;;;;;6324739;28;20074;-79
2023/07/12 14:36:50;;;;;;;14.18;4.95;;;;;;;;;;6330421;28;20058;-79
2023/07/12 14:39:52;;;;;;;12.10;4.57;;;;;;;;;;6329850;28;20048;-79
2023/07/12 14:42:55;;;;;;;18.15;5.25;;;;;;;;;;6330669;28;20048;-79
2023/07/12 14:45:56;;;;;;;12.88;4.40;;;;;;;;;;6330029;28;20066;-79
2023/07/12 14:48:58;;;;;;;15.77;4.47;;;;;;;;;;6329498;28;20055;-79
2023/07/12 14:52:00;;;;;;;16.33;5.32;;;;;;;;;;6330161;28;20346;-79
2023/07/12 14:55:03;;;;;;;15.48;5.07;;;;;;;;;;6329944;28;20055;-79
2023/07/12 14:58:12;;;;;;;15.60;4.90;;;;;;;;;;6322541;28;20052;-79
2023/07/12 15:01:20;;;;;;;12.13;5.20;;;;;;;;;;6299663;28;20078;-79
2023/07/12 15:04:22;;;;;;;15.48;5.18;;;;;;;;;;6299904;28;20044;-79
2023/07/12 15:07:24;;;;;;;13.50;4.50;;;;;;;;;;6298402;28;20364;-79
2023/07/12 15:10:26;;;;;;;13.35;4.40;;;;;;;;;;6296872;28;20048;-79
2023/07/12 15:13:28;;;;;;;14.30;5.23;;;;;;;;;;6307319;28;20057;-79
2023/07/12 15:16:30;;;;;;;16.05;5.15;;;;;;;;;;6298358;28;20067;-79
2023/07/12 15:19:31;;;;;;;13.37;4.90;;;;;;;;;;6298898;28;20053;-78
2023/07/12 15:22:33;;;;;;;12.93;4.47;;;;;;;;;;6300265;28;20308;-79
2023/07/12 15:25:34;;;;;;;10.75;4.43;;;;;;;;;;6299940;28;20329;-80
2023/07/12 15:28:38;;;;;;;68.78;47.65;;;;;;;;;;6299802;28;20119;-81
2023/07/12 15:31:40;;;;;;;37.83;23.80;;;;;;;;;;6296063;28;20345;-79
2023/07/12 15:34:52;;;;;;;11.57;5.60;;;;;;;;;;6301477;28;20070;-79
2023/07/12 15:37:55;;;;;;;14.00;4.80;;;;;;;;;;6298279;28;20052;-79
2023/07/12 15:40:58;;;;;;;14.05;5.22;;;;;;;;;;6304468;28;20240;-79
2023/07/12 15:44:00;;;;;;;;;;;;;;;;;;6300489;28;20058;-79
2023/07/12 15:47:03;;;;;;;12.07;4.32;;;;;;;;;;6298433;28;20208;-79
2023/07/12 15:50:05;;;;;;;12.98;4.82;;;;;;;;;;6298449;28;20044;-79
2023/07/12 15:53:09;;;;;;;11.82;4.72;;;;;;;;;;6303834;28;20070;-79
2023/07/12 15:56:15;;;;;;;9.18;4.43;;;;;;;;;;6306059;28;20055;-79
2023/07/12 15:59:17;;;;;;;15.43;4.97;;;;;;;;;;6303741;28;20120;-79
2023/07/12 16:02:20;;;;;;;12.60;4.40;;;;;;;;;;6303981;28;20052;-79
2023/07/12 16:05:23;;;;;;;10.75;4.65;;;;;;;;;;6304284;28;20213;-79
2023/07/12 16:08:25;;;;;;;15.98;4.70;;;;;;;;;;6303607;28;20221;-78
2023/07/12 16:11:29;;;;;;;13.23;4.85;;;;;;;;;;6305405;28;20058;-80
2023/07/12 16:14:31;;;;;;;19.33;5.50;;;;;;;;;;6303322;28;20378;-80
2023/07/12 16:17:36;;;;;;;18.42;5.18;;;;;;;;;;6303211;28;20055;-80
2023/07/12 16:20:37;;;;;;;11.48;4.60;;;;;;;;;;6304375;28;20245;-79
2023/07/12 16:23:39;;;;;;;16.60;4.80;;;;;;;;;;6303782;28;20086;-79
2023/07/12 16:26:41;;;;;;;14.93;4.78;;;;;;;;;;6298772;28;20422;-79
2023/07/12 16:29:43;;;;;;;14.17;4.70;;;;;;;;;;6306044;28;20048;-79
2023/07/12 16:32:46;;;;;;;14.85;5.47;;;;;;;;;;6303528;28;20494;-79
2023/07/12 16:35:49;;;;;;;18.08;5.22;;;;;;;;;;6303575;28;20052;-79
2023/07/12 16:38:51;;;;;;;8.20;4.07;;;;;;;;;;6305194;28;20080;-79
2023/07/12 16:41:53;;;;;;;11.70;4.50;;;;;;;;;;6305451;28;20059;-79
2023/07/12 16:44:55;;;;;;;10.10;3.97;;;;;;;;;;6302871;28;20086;-79
2023/07/12 16:47:58;;;;;;;7.07;4.68;;;;;;;;;;6303458;28;20067;-80
2023/07/12 16:51:00;;;;;;;9.63;4.63;;;;;;;;;;6304807;28;20059;-79
2023/07/12 16:54:02;;;;;;;11.68;4.13;;;;;;;;;;6302689;28;20337;-80
2023/07/12 16:57:04;;;;;;;8.43;4.32;;;;;;;;;;6303818;28;20056;-80
2023/07/12 17:00:11;;;;;;;11.50;4.30;;;;;;;;;;6303367;28;20048;-79
2023/07/12 17:03:14;;;;;;;14.05;4.40;;;;;;;;;;6302373;28;20040;-79
2023/07/12 17:06:16;;;;;;;12.32;4.65;;;;;;;;;;6303405;28;20113;-79
2023/07/12 17:09:19;;;;;;;16.55;4.80;;;;;;;;;;6302309;28;20052;-79
2023/07/12 17:12:23;;;;;;;11.52;4.38;;;;;;;;;;6302118;28;20053;-80
2023/07/12 17:15:24;;;;;;;11.15;3.88;;;;;;;;;;6302533;28;20076;-79
2023/07/12 17:18:27;;;;;;;11.60;4.50;;;;;;;;;;6284935;28;20052;-79
2023/07/12 17:21:29;;;;;;;11.43;4.13;;;;;;;;;;6301970;28;20255;-80
2023/07/12 17:24:31;;;;;;;11.90;4.05;;;;;;;;;;6301217;28;20102;-79
2023/07/12 17:27:32;;;;;;;9.80;3.92;;;;;;;;;;6301574;28;20084;-79
2023/07/12 17:30:34;;;;;;;10.68;4.03;;;;;;;;;;6297143;28;20052;-79
2023/07/12 17:33:37;;;;;;;10.05;4.20;;;;;;;;;;6303123;28;20052;-79
2023/07/12 17:36:38;;;;;;;8.52;4.25;;;;;;;;;;6300807;28;20059;-81
2023/07/12 17:39:41;;;;;;;10.32;4.43;;;;;;;;;;6302313;28;20066;-81
2023/07/12 17:42:43;;;;;;;7.95;4.07;;;;;;;;;;6303841;28;20061;-79
2023/07/12 17:45:45;;;;;;;10.00;4.20;;;;;;;;;;6301065;28;20064;-81
2023/07/12 17:48:51;;;;;;;11.00;4.05;;;;;;;;;;6286459;28;20059;-82
2023/07/12 17:51:53;;;;;;;12.35;4.43;;;;;;;;;;6299289;28;20063;-81
2023/07/12 17:54:55;;;;;;;11.43;3.80;;;;;;;;;;6300348;28;20060;-83
2023/07/12 17:57:56;;;;;;;10.38;4.65;;;;;;;;;;6304310;28;20051;-79
2023/07/12 18:00:58;;;;;;;8.95;3.90;;;;;;;;;;6324736;28;20063;-80
2023/07/12 18:04:01;;;;;;;8.57;3.58;;;;;;;;;;6325215;28;20044;-81
2023/07/12 18:07:02;;;;;;;10.45;3.63;;;;;;;;;;6323890;28;20044;-81
2023/07/12 18:10:04;;;;;;;6.95;3.42;;;;;;;;;;6324697;28;20052;-82